Abbeville, LA

1:14 PM CDT on July 29, 2015 (GMT -0500)
AGH - Abbeville | | Change Station
CLOSE
Current Station
Personal Weather Station
Location: Abbeville, LA
Elevation: 60 ft
Nearby Weather Stations

Elev 60 ft 29.97 °N, 92.11 °W | Updated 20 seconds ago

Partly Cloudy
Partly Cloudy
94.2 °F
Feels Like 108 °F
N
3.0
Wind Variable Wind from ENE
Gusts 5.0 mph

Today
High -- | Low -- °F
--% Chance of Precip.
Yesterday
High -- | Low -- °F
Precip. -- in
6:25 AM 8:03 PM
Waxing Gibbous, 96% visible
Pressure 30.04 in
Visibility 10.0 miles
Clouds Scattered Clouds 4600 ft
Scattered Clouds 5000 ft
Mostly Cloudy 8000 ft
Heat Index 108 °F
Dew Point 77 °F
Humidity 57%
Rainfall 0.00 in
Snow Depth Not available.
UV 7 out of 12
Pollen 2.70 out of 12
Air Quality Not available.
Flu Activity Not available.
METAR KIYA 291755Z AUTO 36004KT 10SM SCT046 SCT050 BKN080 34/23 A3004 RMK AO2 T03370228 10342 20230

More Conditions Fewer Conditions

Pressure 30.04 in
Visibility 10.0 miles
Clouds Scattered Clouds 4600 ft
Scattered Clouds 5000 ft
Mostly Cloudy 8000 ft
Heat Index 108 °F
Dew Point 77 °F
Humidity 57%
Rainfall 0.00 in
Snow Depth Not available.
UV 7 out of 12
Pollen 2.70 out of 12
Air Quality Not available.
Flu Activity Not available.
METAR KIYA 291755Z AUTO 36004KT 10SM SCT046 SCT050 BKN080 34/23 A3004 RMK AO2 T03370228 10342 20230

More Conditions Fewer Conditions

10-Day Weather Forecast

×

Almanac

Astronomy

Jul. 29, 2015 Rise Set
Actual Time
Civil Twilight
Nautical Twilight
Astronomical Twilight
Moon
Length of Visible Light
Length of Day
Tomorrow will be .
, % of the Moon is Illuminated

Today's Extremes

State Highs State Lows

Community

WunderPhotos

Upload Photos

1,842,141 photos uploaded!

WunderBlogs® & News

Nearby

Air Quality

  Air Quality AQ Index Pollutant
Not available.

Snow Depth

Station Depth Elevation

Earthquake Activity

City Distance Mag. Time & Date
Minimum magnitude displayed is 2.5.

Coastal Water Temperatures

Place Temperature

Stations

Nearby Weather Stations

Station Location Temp. Windchill Dew Point Humidity Wind Precip. Elev Updated Type